Time;durP1;ratioP1;P1;durP2;ratioP2;P2;SDS_P1;SDS_P2;PMS_P1;PMS_P2;Temp;Humidity;BMP_temperature;BMP_pressure;BME280_temperature;BME280_humidity;BME280_pressure;Samples;Min_cycle;Max_cycle;Signal;HPM_P1;HPM_P2
2022/03/20 00:02:00;;;;;;;26.83;11.50;;;3.10;82.20;;;;;;5050742;28;20178;-78
2022/03/20 00:04:25;;;;;;;21.57;11.00;;;3.10;82.30;;;;;;5050276;28;20274;-78
2022/03/20 00:06:51;;;;;;;30.17;12.40;;;3.10;82.30;;;;;;5050149;28;20182;-78
2022/03/20 00:09:17;;;;;;;23.50;10.60;;;3.00;82.40;;;;;;5050427;28;20172;-77
2022/03/20 00:11:42;;;;;;;37.70;13.27;;;3.00;82.30;;;;;;5051684;28;20225;-77
2022/03/20 00:14:08;;;;;;;26.53;11.60;;;3.00;82.40;;;;;;5050482;28;20944;-77
2022/03/20 00:16:34;;;;;;;21.97;11.60;;;3.00;82.40;;;;;;5050321;28;20269;-77
2022/03/20 00:18:59;;;;;;;26.83;11.33;;;3.00;82.30;;;;;;5049281;28;20172;-77
2022/03/20 00:21:25;;;;;;;24.20;10.87;;;3.00;82.40;;;;;;5049638;28;20269;-77
2022/03/20 00:23:50;;;;;;;27.30;12.70;;;2.90;82.50;;;;;;5030997;28;20193;-77
2022/03/20 00:26:18;;;;;;;25.37;12.00;;;2.90;82.50;;;;;;5030536;28;20207;-78
2022/03/20 00:28:44;;;;;;;23.83;10.47;;;2.90;82.70;;;;;;5030472;28;20712;-78
2022/03/20 00:31:10;;;;;;;22.53;11.83;;;2.90;82.70;;;;;;5030059;28;20473;-78
2022/03/20 00:33:35;;;;;;;30.00;10.70;;;2.90;82.70;;;;;;5030070;28;20435;-77
2022/03/20 00:36:01;;;;;;;24.63;11.27;;;2.80;82.80;;;;;;5030254;28;20180;-78
2022/03/20 00:38:27;;;;;;;30.53;12.03;;;2.80;83.00;;;;;;5029880;28;20630;-79
2022/03/20 00:40:52;;;;;;;21.93;10.80;;;2.80;83.00;;;;;;5030848;28;20665;-77
2022/03/20 00:43:18;;;;;;;27.03;11.27;;;2.80;83.40;;;;;;5031064;28;20616;-78
2022/03/20 00:45:44;;;;;;;21.53;10.77;;;2.70;83.40;;;;;;5029943;28;20180;-77
2022/03/20 00:48:10;;;;;;;25.00;11.00;;;2.70;83.70;;;;;;5030046;28;20177;-78
2022/03/20 00:50:36;;;;;;;26.93;11.67;;;2.70;83.60;;;;;;5029552;28;20271;-77
2022/03/20 00:53:01;;;;;;;24.93;11.80;;;2.70;83.70;;;;;;5031076;28;20435;-78
2022/03/20 00:55:29;;;;;;;26.10;12.80;;;2.60;83.90;;;;;;5029685;28;20430;-77
2022/03/20 00:57:54;;;;;;;29.00;12.80;;;2.60;84.00;;;;;;5031109;28;20489;-77
2022/03/20 01:00:20;;;;;;;31.77;12.10;;;2.60;84.00;;;;;;5029543;28;20492;-78
2022/03/20 01:02:46;;;;;;;28.00;11.90;;;2.60;84.00;;;;;;5030649;28;20199;-77
2022/03/20 01:05:12;;;;;;;29.77;12.80;;;2.50;84.20;;;;;;5030883;28;20480;-77
2022/03/20 01:07:38;;;;;;;28.07;12.50;;;2.50;84.40;;;;;;5029430;28;20193;-77
2022/03/20 01:10:06;;;;;;;28.07;11.70;;;2.50;84.40;;;;;;5029290;28;20924;-77
2022/03/20 01:12:33;;;;;;;25.87;10.40;;;2.40;84.60;;;;;;5029510;28;20769;-77
2022/03/20 01:15:03;;;;;;;24.27;10.83;;;2.40;84.80;;;;;;5029647;28;20489;-77
2022/03/20 01:17:29;;;;;;;28.37;10.80;;;2.40;84.80;;;;;;5031413;28;20900;-78
2022/03/20 01:19:54;;;;;;;26.90;12.70;;;2.30;84.80;;;;;;5029329;28;20466;-77
2022/03/20 01:22:20;;;;;;;22.50;10.50;;;2.30;84.80;;;;;;5029544;28;20226;-78
2022/03/20 01:24:46;;;;;;;24.37;12.13;;;2.30;85.00;;;;;;5028890;28;20226;-77
2022/03/20 01:27:12;;;;;;;30.33;12.37;;;2.30;85.10;;;;;;5029135;28;20526;-77
2022/03/20 01:29:39;;;;;;;31.07;11.77;;;2.20;85.20;;;;;;5030441;28;20259;-78
2022/03/20 01:32:04;;;;;;;27.23;12.53;;;2.20;85.40;;;;;;5030117;28;20773;-77
2022/03/20 01:34:30;;;;;;;26.40;12.43;;;2.20;85.70;;;;;;5029051;28;20453;-78
2022/03/20 01:36:57;;;;;;;32.70;12.17;;;2.10;85.70;;;;;;5030503;28;20659;-77
2022/03/20 01:39:22;;;;;;;27.87;11.43;;;2.10;85.70;;;;;;5028902;28;21048;-78
2022/03/20 01:41:48;;;;;;;27.83;11.77;;;2.10;85.80;;;;;;5028991;28;20427;-77
2022/03/20 01:44:14;;;;;;;28.77;11.87;;;2.00;85.80;;;;;;5030060;28;20203;-77
2022/03/20 01:46:40;;;;;;;35.73;13.50;;;2.00;85.90;;;;;;5029975;28;20184;-78
2022/03/20 01:49:05;;;;;;;35.17;12.70;;;2.00;85.80;;;;;;5029012;28;20412;-77
2022/03/20 01:54:15;;;;;;;25.90;12.00;;;2.00;85.70;;;;;;5030184;28;20982;-77
2022/03/20 01:56:51;;;;;;;30.00;13.23;;;2.00;85.70;;;;;;5028586;28;20415;-78
2022/03/20 01:59:18;;;;;;;23.30;10.20;;;2.00;85.80;;;;;;5028529;28;20234;-77
2022/03/20 02:01:44;;;;;;;31.53;13.10;;;2.00;85.80;;;;;;5028660;28;20768;-77
2022/03/20 02:04:14;;;;;;;22.37;11.60;;;2.00;85.80;;;;;;5028830;28;20439;-78
2022/03/20 02:06:41;;;;;;;31.00;13.20;;;2.00;85.70;;;;;;5028886;28;20416;-77
2022/03/20 02:09:07;;;;;;;31.40;11.57;;;2.00;86.00;;;;;;5029184;28;20422;-77
2022/03/20 02:11:33;;;;;;;26.00;12.20;;;1.90;86.00;;;;;;5028825;28;20416;-77
2022/03/20 02:13:59;;;;;;;23.53;12.27;;;1.90;86.10;;;;;;5030142;28;20810;-77
2022/03/20 02:16:25;;;;;;;30.27;13.00;;;1.90;86.20;;;;;;5028407;28;20272;-77
2022/03/20 02:18:50;;;;;;;28.37;12.83;;;1.90;86.10;;;;;;5029526;28;20203;-77
2022/03/20 02:21:35;;;;;;;30.57;12.40;;;1.90;86.30;;;;;;5028244;28;20462;-77
2022/03/20 02:24:01;;;;;;;32.50;12.30;;;1.90;86.30;;;;;;5008784;28;20970;-77
2022/03/20 02:26:26;;;;;;;32.17;12.10;;;1.80;86.40;;;;;;5008416;28;20427;-77
2022/03/20 02:28:52;;;;;;;28.30;10.93;;;1.80;86.40;;;;;;5008890;28;20180;-78
2022/03/20 02:31:17;;;;;;;24.23;11.70;;;1.80;86.40;;;;;;5010105;28;20589;-77
2022/03/20 02:33:43;;;;;;;28.93;13.33;;;1.80;86.40;;;;;;5009465;28;20255;-77
2022/03/20 02:36:09;;;;;;;22.90;11.80;;;1.80;86.80;;;;;;5009686;28;20185;-78
2022/03/20 02:38:36;;;;;;;28.13;12.30;;;1.70;86.80;;;;;;5008879;28;20204;-77
2022/03/20 02:41:14;;;;;;;30.80;11.77;;;1.70;86.80;;;;;;5011117;28;20494;-77
2022/03/20 02:43:49;;;;;;;27.80;13.10;;;1.70;86.90;;;;;;5012189;28;21018;-77
2022/03/20 02:46:15;;;;;;;28.87;11.93;;;1.70;87.00;;;;;;5013899;28;20419;-77
2022/03/20 02:48:42;;;;;;;26.17;12.77;;;1.60;87.00;;;;;;5012613;28;20437;-77
2022/03/20 02:51:07;;;;;;;27.70;13.80;;;1.60;87.10;;;;;;5016039;28;20419;-77
2022/03/20 02:53:34;;;;;;;27.23;11.73;;;1.60;87.20;;;;;;5032199;28;20937;-77
2022/03/20 02:56:00;;;;;;;28.50;11.80;;;1.60;87.30;;;;;;5031986;28;20184;-78
2022/03/20 02:58:27;;;;;;;38.40;12.33;;;1.50;87.50;;;;;;5031694;28;20905;-76
2022/03/20 03:00:55;;;;;;;26.10;12.07;;;1.50;87.60;;;;;;5031994;28;20196;-77
2022/03/20 03:03:21;;;;;;;28.80;12.00;;;1.50;87.60;;;;;;5032653;28;20450;-77
2022/03/20 03:05:47;;;;;;;33.30;13.40;;;1.50;87.70;;;;;;5031235;28;20427;-77
2022/03/20 03:10:57;;;;;;;34.03;12.20;;;1.40;87.80;;;;;;5033453;28;20596;-76
2022/03/20 03:13:32;;;;;;;23.87;11.10;;;1.40;87.80;;;;;;5031432;28;20431;-78
2022/03/20 03:15:59;;;;;;;25.60;10.67;;;1.40;87.80;;;;;;5032715;28;20411;-77
2022/03/20 03:18:25;;;;;;;27.27;12.00;;;1.40;87.80;;;;;;5031275;28;20415;-77
2022/03/20 03:20:52;;;;;;;32.23;12.47;;;1.40;87.80;;;;;;5031389;28;21022;-77
2022/03/20 03:23:20;;;;;;;23.07;10.70;;;1.40;87.70;;;;;;5032525;28;20431;-77
2022/03/20 03:25:46;;;;;;;25.47;10.80;;;1.40;87.70;;;;;;5032865;28;20734;-78
2022/03/20 03:28:12;;;;;;;30.17;11.00;;;1.40;87.80;;;;;;5031493;28;20501;-77
2022/03/20 03:30:46;;;;;;;25.37;11.67;;;1.40;87.90;;;;;;5031240;28;20945;-77
2022/03/20 03:33:13;;;;;;;33.10;11.90;;;1.40;87.90;;;;;;5031442;28;20264;-77
2022/03/20 03:35:42;;;;;;;24.73;11.20;;;1.40;87.70;;;;;;5032884;28;20423;-78
2022/03/20 03:38:14;;;;;;;23.90;10.70;;;1.40;87.70;;;;;;5033145;28;20420;-77
2022/03/20 03:40:41;;;;;;;29.40;11.07;;;1.40;87.70;;;;;;5031190;28;20467;-77
2022/03/20 03:43:07;;;;;;;25.63;12.43;;;1.40;87.90;;;;;;5032581;28;20506;-78
2022/03/20 03:45:34;;;;;;;29.50;12.03;;;1.40;87.80;;;;;;5025181;28;20560;-77
2022/03/20 03:48:00;;;;;;;25.90;12.07;;;1.30;87.80;;;;;;5030676;28;20532;-77
2022/03/20 03:50:26;;;;;;;31.27;12.50;;;1.30;87.80;;;;;;5030665;28;20441;-77
2022/03/20 03:52:52;;;;;;;25.40;12.13;;;1.30;87.70;;;;;;5029688;28;20816;-77
2022/03/20 03:55:18;;;;;;;32.43;13.00;;;1.30;87.70;;;;;;5031016;28;20430;-77
2022/03/20 03:57:46;;;;;;;39.70;11.40;;;1.30;87.80;;;;;;5031270;28;20181;-77
2022/03/20 04:00:12;;;;;;;23.07;11.17;;;1.30;87.90;;;;;;5032286;28;20454;-77
2022/03/20 04:02:38;;;;;;;27.83;11.00;;;1.30;87.80;;;;;;5031860;28;20449;-78
2022/03/20 04:05:04;;;;;;;31.77;12.23;;;1.30;87.80;;;;;;5030558;28;20434;-77
2022/03/20 04:07:30;;;;;;;27.43;11.07;;;1.30;87.60;;;;;;5030615;28;20206;-77
2022/03/20 04:09:55;;;;;;;30.83;12.47;;;1.30;87.50;;;;;;5031809;28;20423;-77
2022/03/20 04:12:22;;;;;;;30.90;12.00;;;1.30;87.40;;;;;;5030633;28;20180;-78
2022/03/20 04:14:48;;;;;;;25.80;11.50;;;1.30;87.40;;;;;;5030369;28;20216;-77
2022/03/20 04:17:14;;;;;;;34.73;12.83;;;1.30;87.60;;;;;;5031830;28;20454;-78
2022/03/20 04:19:41;;;;;;;25.27;12.50;;;1.30;87.60;;;;;;5038463;28;20633;-77
2022/03/20 04:22:06;;;;;;;21.03;10.80;;;1.30;87.60;;;;;;5043713;28;20846;-77
2022/03/20 04:24:32;;;;;;;30.10;10.73;;;1.30;87.80;;;;;;5030474;28;20435;-77
2022/03/20 04:26:58;;;;;;;28.27;11.83;;;1.30;88.10;;;;;;5030147;28;20649;-77
2022/03/20 04:29:27;;;;;;;25.87;11.67;;;1.20;88.30;;;;;;5029801;28;20235;-77
2022/03/20 04:31:54;;;;;;;27.23;11.97;;;1.20;88.50;;;;;;5030016;28;20989;-77
2022/03/20 04:34:21;;;;;;;29.20;11.33;;;1.10;88.60;;;;;;5031187;28;20455;-76
2022/03/20 04:36:46;;;;;;;31.63;12.40;;;1.10;88.70;;;;;;5030005;28;20506;-78
2022/03/20 04:39:12;;;;;;;30.93;13.10;;;1.10;88.60;;;;;;5031319;28;20494;-77
2022/03/20 04:41:37;;;;;;;32.53;12.40;;;1.10;88.80;;;;;;5030098;28;20566;-77
2022/03/20 04:44:03;;;;;;;28.17;12.90;;;1.10;88.90;;;;;;5029820;28;20435;-77
2022/03/20 04:46:29;;;;;;;25.07;11.70;;;1.00;88.80;;;;;;5030102;28;20314;-79
2022/03/20 04:59:53;;;;;;;26.73;12.13;;;1.00;89.10;;;;;;5050801;28;21084;-77
2022/03/20 05:02:18;;;;;;;26.43;11.13;;;1.00;89.20;;;;;;5049341;28;20426;-77
2022/03/20 05:04:44;;;;;;;28.70;11.00;;;0.90;89.20;;;;;;5049135;28;21001;-77
2022/03/20 05:07:09;;;;;;;31.67;11.73;;;0.90;89.30;;;;;;5049521;28;20600;-78
2022/03/20 05:15:09;;;;;;;32.77;12.47;;;0.90;89.30;;;;;;5050694;28;20757;-77
2022/03/20 05:17:35;;;;;;;24.80;11.73;;;0.90;89.50;;;;;;5049030;28;20445;-77
2022/03/20 05:20:04;;;;;;;32.70;12.43;;;0.90;89.30;;;;;;5048749;28;20465;-77
2022/03/20 05:22:32;;;;;;;23.77;11.17;;;0.90;89.50;;;;;;5039518;28;20757;-77
2022/03/20 05:24:57;;;;;;;29.73;11.30;;;0.90;89.10;;;;;;5029247;28;20415;-77
2022/03/20 05:27:23;;;;;;;26.37;12.33;;;0.90;89.00;;;;;;5029373;28;20753;-76
2022/03/20 05:29:49;;;;;;;31.07;13.00;;;0.90;89.00;;;;;;5028951;28;20232;-78
2022/03/20 05:32:14;;;;;;;22.73;11.40;;;1.00;88.70;;;;;;5029174;28;20177;-77
2022/03/20 05:34:40;;;;;;;31.10;12.07;;;1.00;88.60;;;;;;5028764;28;20682;-78
2022/03/20 05:37:07;;;;;;;22.67;12.13;;;1.00;88.70;;;;;;5029237;28;20568;-77
2022/03/20 05:39:34;;;;;;;28.90;12.73;;;1.00;88.50;;;;;;5029385;28;20186;-77
2022/03/20 05:41:59;;;;;;;28.43;12.10;;;1.10;88.50;;;;;;5030670;28;20412;-77
2022/03/20 05:44:26;;;;;;;23.60;11.67;;;1.10;88.40;;;;;;5029077;28;20431;-77
2022/03/20 05:46:54;;;;;;;27.20;11.87;;;1.10;88.20;;;;;;5029267;28;20246;-78
2022/03/20 05:49:22;;;;;;;23.50;11.40;;;1.20;88.30;;;;;;5028568;28;20599;-78
2022/03/20 05:51:49;;;;;;;29.53;11.93;;;1.20;88.20;;;;;;5036916;28;20483;-77
2022/03/20 05:54:15;;;;;;;35.70;14.53;;;1.20;88.00;;;;;;5029779;28;20485;-77
2022/03/20 05:59:26;;;;;;;37.53;12.47;;;1.30;87.80;;;;;;5030968;28;20449;-77
2022/03/20 06:01:51;;;;;;;23.43;11.87;;;1.30;87.80;;;;;;5028940;28;20419;-77
2022/03/20 06:04:19;;;;;;;36.87;13.80;;;1.30;87.70;;;;;;5028997;28;21000;-78
2022/03/20 06:06:45;;;;;;;29.10;12.57;;;1.40;87.60;;;;;;5028796;28;20226;-77
2022/03/20 06:09:11;;;;;;;25.13;10.63;;;1.40;87.50;;;;;;5028751;28;20816;-78
2022/03/20 06:11:37;;;;;;;32.53;12.60;;;1.40;87.50;;;;;;5030393;28;20177;-77
2022/03/20 06:14:03;;;;;;;30.10;12.60;;;1.50;87.50;;;;;;5028835;28;20489;-78
2022/03/20 06:16:30;;;;;;;31.63;11.93;;;1.50;87.50;;;;;;5032016;28;20187;-78
2022/03/20 06:18:56;;;;;;;28.27;12.40;;;1.50;87.20;;;;;;5032579;28;20430;-78
2022/03/20 06:21:23;;;;;;;33.40;10.43;;;1.60;87.10;;;;;;5032837;28;21019;-78
2022/03/20 06:23:49;;;;;;;37.67;13.47;;;1.60;87.30;;;;;;5036128;28;20435;-77
2022/03/20 06:26:17;;;;;;;27.07;12.57;;;1.70;87.30;;;;;;5053848;28;20505;-77
2022/03/20 06:28:43;;;;;;;26.70;11.33;;;1.70;87.10;;;;;;5052270;28;20693;-78
2022/03/20 06:31:12;;;;;;;31.63;12.83;;;1.80;86.90;;;;;;5052670;28;20889;-78
2022/03/20 06:33:39;;;;;;;27.13;11.37;;;1.90;86.70;;;;;;5054036;28;20450;-78
2022/03/20 06:36:06;;;;;;;33.50;11.80;;;1.90;86.70;;;;;;5052518;28;20962;-77
2022/03/20 06:38:33;;;;;;;32.33;12.43;;;2.00;86.60;;;;;;5053607;28;20517;-77
2022/03/20 06:41:00;;;;;;;33.27;11.73;;;2.10;86.20;;;;;;5052043;28;20473;-78
2022/03/20 06:43:25;;;;;;;32.20;12.47;;;2.20;86.30;;;;;;5051965;28;20545;-77
2022/03/20 06:45:53;;;;;;;23.90;11.27;;;2.30;86.30;;;;;;5051997;28;20509;-78
2022/03/20 06:48:18;;;;;;;34.47;11.77;;;2.40;85.70;;;;;;5052279;28;20187;-77
2022/03/20 06:50:44;;;;;;;35.60;13.80;;;2.50;85.70;;;;;;5052323;28;20919;-77
2022/03/20 06:53:11;;;;;;;35.00;11.20;;;2.60;85.80;;;;;;5053444;28;20195;-78
2022/03/20 06:55:37;;;;;;;29.47;12.13;;;2.70;85.60;;;;;;5052162;28;20190;-77
2022/03/20 06:58:02;;;;;;;29.63;11.47;;;2.80;85.00;;;;;;5048868;28;20422;-79
2022/03/20 07:00:29;;;;;;;32.70;12.03;;;2.90;84.80;;;;;;5033107;28;20816;-78
2022/03/20 07:02:56;;;;;;;26.30;12.07;;;3.00;84.60;;;;;;5031465;28;20204;-77
2022/03/20 07:05:22;;;;;;;27.90;11.90;;;3.00;84.80;;;;;;5032052;28;20557;-78
2022/03/20 07:07:51;;;;;;;27.30;11.90;;;3.10;84.80;;;;;;5033301;28;20418;-79
2022/03/20 07:10:24;;;;;;;29.87;12.40;;;3.30;84.50;;;;;;5031422;28;20430;-78
2022/03/20 07:12:51;;;;;;;26.40;11.70;;;3.40;84.50;;;;;;5031810;28;20451;-78
2022/03/20 07:15:18;;;;;;;31.43;11.57;;;3.50;84.00;;;;;;5031831;28;20920;-78
2022/03/20 07:17:44;;;;;;;31.83;12.97;;;3.60;83.80;;;;;;5032981;28;20415;-78
2022/03/20 07:20:10;;;;;;;20.77;10.80;;;3.60;83.60;;;;;;5032797;28;20459;-78
2022/03/20 07:22:36;;;;;;;26.93;11.57;;;3.70;83.40;;;;;;5033101;28;20466;-77
2022/03/20 07:30:31;;;;;;;23.70;11.10;;;4.10;82.90;;;;;;5032242;28;20497;-78
2022/03/20 07:32:57;;;;;;;27.93;11.57;;;4.20;82.20;;;;;;5030800;28;20439;-78
2022/03/20 07:35:24;;;;;;;28.23;12.30;;;4.30;82.00;;;;;;5030524;28;20184;-78
2022/03/20 07:37:50;;;;;;;27.53;12.53;;;4.40;82.00;;;;;;5025216;28;20197;-78
2022/03/20 07:40:15;;;;;;;37.33;15.00;;;4.50;81.90;;;;;;5025506;28;20467;-78
2022/03/20 07:42:41;;;;;;;32.17;12.10;;;4.70;81.70;;;;;;5026520;28;20255;-78
2022/03/20 07:45:07;;;;;;;26.20;11.50;;;4.80;81.50;;;;;;5028035;28;20183;-78
2022/03/20 07:47:33;;;;;;;29.33;12.07;;;5.00;81.50;;;;;;5020901;28;20191;-78
2022/03/20 07:50:00;;;;;;;29.47;12.23;;;5.10;81.40;;;;;;5032811;28;20431;-79
2022/03/20 07:52:27;;;;;;;26.47;11.77;;;5.20;80.90;;;;;;5031612;28;20242;-78
2022/03/20 07:54:53;;;;;;;32.97;12.93;;;5.40;80.70;;;;;;5037770;28;20844;-79
2022/03/20 07:57:19;;;;;;;25.27;11.53;;;5.40;80.20;;;;;;5047912;28;20887;-78
2022/03/20 07:59:45;;;;;;;25.30;11.33;;;5.50;79.90;;;;;;5037196;28;20423;-78
2022/03/20 08:02:11;;;;;;;27.57;13.20;;;5.60;79.80;;;;;;5034221;28;20179;-79
2022/03/20 08:04:36;;;;;;;24.27;11.20;;;5.70;80.10;;;;;;5041644;28;20202;-78
2022/03/20 08:07:03;;;;;;;24.60;11.80;;;5.90;79.80;;;;;;5037471;28;20505;-79
2022/03/20 08:09:29;;;;;;;29.13;12.03;;;6.00;78.90;;;;;;5047371;28;20183;-79
2022/03/20 08:11:55;;;;;;;34.33;13.17;;;6.10;78.50;;;;;;5050964;28;20429;-77
2022/03/20 08:14:22;;;;;;;22.90;12.00;;;6.20;78.60;;;;;;5042597;28;21478;-79
2022/03/20 08:16:48;;;;;;;24.80;12.43;;;6.40;78.30;;;;;;5038327;28;21094;-79
2022/03/20 08:19:16;;;;;;;23.90;11.73;;;6.50;77.50;;;;;;5031663;28;20451;-79
2022/03/20 08:21:42;;;;;;;23.10;11.10;;;6.70;77.40;;;;;;5031114;28;20459;-80
2022/03/20 08:24:09;;;;;;;29.00;11.97;;;6.80;76.60;;;;;;5030574;28;20428;-80
2022/03/20 08:26:35;;;;;;;23.50;11.63;;;6.90;76.00;;;;;;5031566;28;20410;-79
2022/03/20 08:29:01;;;;;;;22.40;12.20;;;7.10;75.80;;;;;;5031117;28;21065;-80
2022/03/20 08:31:28;;;;;;;24.60;10.60;;;7.20;75.50;;;;;;5015562;28;20467;-79
2022/03/20 08:33:57;;;;;;;22.43;10.00;;;7.30;74.40;;;;;;5023207;28;20435;-79
2022/03/20 08:36:24;;;;;;;21.20;11.30;;;7.40;75.10;;;;;;5027049;28;20430;-80
2022/03/20 08:38:50;;;;;;;23.97;10.90;;;7.60;74.70;;;;;;5018856;28;20408;-80
2022/03/20 08:41:16;;;;;;;23.20;10.90;;;7.60;73.50;;;;;;5023145;28;21147;-79
2022/03/20 08:43:42;;;;;;;27.40;12.10;;;7.70;73.80;;;;;;5024192;28;20462;-80
2022/03/20 08:46:07;;;;;;;21.70;10.80;;;7.80;73.80;;;;;;5021435;28;20650;-80
2022/03/20 08:48:33;;;;;;;22.47;10.23;;;8.00;73.70;;;;;;5029394;28;20184;-80
2022/03/20 08:50:58;;;;;;;23.57;11.47;;;8.00;73.50;;;;;;5026097;28;20236;-80
2022/03/20 08:53:25;;;;;;;22.63;11.57;;;8.20;72.90;;;;;;5018124;28;20201;-80
2022/03/20 08:55:51;;;;;;;29.40;12.60;;;8.30;73.70;;;;;;5019485;28;20545;-76
2022/03/20 08:58:17;;;;;;;19.90;10.53;;;8.30;73.00;;;;;;5020965;28;20422;-77
2022/03/20 09:00:43;;;;;;;23.33;11.27;;;8.40;73.60;;;;;;5025527;28;20204;-77
2022/03/20 09:03:10;;;;;;;23.43;11.27;;;8.50;73.40;;;;;;5031548;28;20842;-78
2022/03/20 09:05:37;;;;;;;25.43;10.93;;;8.50;73.90;;;;;;5033763;28;20200;-75
2022/03/20 09:08:03;;;;;;;27.57;12.50;;;8.60;74.40;;;;;;5034010;28;20423;-78
2022/03/20 09:10:28;;;;;;;27.43;12.83;;;8.60;73.30;;;;;;5031464;28;20782;-77
2022/03/20 09:12:55;;;;;;;23.03;11.50;;;8.60;74.40;;;;;;5029719;28;20227;-76
2022/03/20 09:15:22;;;;;;;28.93;12.20;;;8.80;74.90;;;;;;5027708;28;20235;-78
2022/03/20 09:20:38;;;;;;;18.83;10.40;;;9.20;73.70;;;;;;5030618;28;20986;-80
2022/03/20 09:23:05;;;;;;;23.60;10.90;;;9.40;72.40;;;;;;5035283;28;20531;-80
2022/03/20 09:25:32;;;;;;;23.90;10.87;;;9.50;72.00;;;;;;5034641;28;20466;-80
2022/03/20 09:27:58;;;;;;;25.63;11.27;;;9.50;71.00;;;;;;5030614;28;20424;-79
2022/03/20 09:30:24;;;;;;;18.80;10.20;;;9.50;71.80;;;;;;5025847;28;21252;-80
2022/03/20 09:32:50;;;;;;;19.20;10.20;;;9.60;71.20;;;;;;5020493;28;20474;-79
2022/03/20 09:35:16;;;;;;;25.03;10.57;;;9.70;70.90;;;;;;5033035;28;20191;-80
2022/03/20 09:37:42;;;;;;;18.30;9.70;;;9.90;70.50;;;;;;5031124;28;20518;-80
2022/03/20 09:40:12;;;;;;;15.80;8.97;;;10.00;69.70;;;;;;5022872;28;20539;-81
2022/03/20 09:42:38;;;;;;;22.23;10.13;;;10.10;69.00;;;;;;5031283;28;20172;-80
2022/03/20 09:45:11;;;;;;;20.10;10.53;;;10.30;69.10;;;;;;5033983;28;20462;-80
2022/03/20 09:47:40;;;;;;;21.73;9.33;;;10.30;67.90;;;;;;5027477;28;20942;-80
2022/03/20 09:50:08;;;;;;;21.23;8.50;;;10.30;67.70;;;;;;5029649;28;20447;-80
2022/03/20 09:52:35;;;;;;;21.90;9.50;;;10.50;68.20;;;;;;5026369;28;20945;-79
2022/03/20 09:55:02;;;;;;;25.23;8.70;;;10.50;67.40;;;;;;5031411;28;20403;-80
2022/03/20 09:57:29;;;;;;;19.30;9.60;;;10.60;67.10;;;;;;5030166;28;20416;-80
2022/03/20 09:59:56;;;;;;;18.80;8.97;;;10.70;67.10;;;;;;5024654;28;20479;-80
2022/03/20 10:02:26;;;;;;;17.13;9.77;;;10.80;66.80;;;;;;5033608;28;20415;-80
2022/03/20 10:04:53;;;;;;;19.47;9.77;;;10.90;66.70;;;;;;5031399;28;20860;-80
2022/03/20 10:07:27;;;;;;;17.67;8.40;;;10.90;66.10;;;;;;5028526;28;20797;-80
2022/03/20 10:10:31;;;;;;;16.77;8.60;;;11.00;66.10;;;;;;5036458;28;20506;-80
2022/03/20 10:12:59;;;;;;;17.23;9.53;;;11.10;66.40;;;;;;5022900;28;20812;-80
2022/03/20 10:15:34;;;;;;;21.87;9.10;;;11.20;66.10;;;;;;5029986;28;20450;-80
2022/03/20 10:18:14;;;;;;;14.37;7.97;;;11.20;66.40;;;;;;5022102;28;20603;-80
2022/03/20 10:20:46;;;;;;;18.03;8.90;;;11.30;66.30;;;;;;5028448;28;20563;-79
2022/03/20 10:23:36;;;;;;;15.60;9.10;;;11.40;65.90;;;;;;5023653;28;20531;-79
2022/03/20 10:26:21;;;;;;;18.93;9.50;;;11.40;66.10;;;;;;5029701;28;20477;-79
2022/03/20 10:28:50;;;;;;;18.17;8.83;;;11.40;66.20;;;;;;5022483;28;20419;-81
2022/03/20 10:31:20;;;;;;;15.97;8.97;;;11.50;67.10;;;;;;5028419;28;20467;-80
2022/03/20 10:34:00;;;;;;;17.37;9.10;;;11.80;66.80;;;;;;5027427;28;20873;-80
2022/03/20 10:36:26;;;;;;;17.10;8.80;;;12.00;67.60;;;;;;5027051;28;20415;-78
2022/03/20 10:38:51;;;;;;;16.23;8.33;;;12.20;66.70;;;;;;5029651;28;20481;-80
2022/03/20 10:41:32;;;;;;;17.57;7.97;;;12.30;66.00;;;;;;5028255;28;20209;-80
2022/03/20 10:43:58;;;;;;;18.70;8.90;;;12.40;65.10;;;;;;5031384;28;20220;-80
2022/03/20 10:46:26;;;;;;;18.57;8.90;;;12.50;63.30;;;;;;5024203;28;20416;-81
2022/03/20 10:48:55;;;;;;;15.90;8.20;;;12.60;62.30;;;;;;5020144;28;20192;-80
2022/03/20 10:51:37;;;;;;;14.20;7.90;;;12.60;62.20;;;;;;5019243;28;20968;-81
2022/03/20 10:54:04;;;;;;;18.73;9.33;;;12.60;61.90;;;;;;5018037;28;20444;-80
2022/03/20 10:56:29;;;;;;;15.47;7.77;;;12.70;61.30;;;;;;5025901;28;20497;-81
2022/03/20 10:58:57;;;;;;;14.47;7.40;;;12.70;60.80;;;;;;5029450;28;20420;-79
2022/03/20 11:01:37;;;;;;;17.13;8.23;;;12.70;61.30;;;;;;5030584;28;20201;-80
2022/03/20 11:04:05;;;;;;;15.20;7.77;;;12.90;61.60;;;;;;5028459;28;20430;-80
2022/03/20 11:06:30;;;;;;;16.50;9.20;;;13.00;61.40;;;;;;5031560;28;20867;-81
2022/03/20 11:08:56;;;;;;;13.07;6.93;;;13.10;61.20;;;;;;5035862;28;20423;-80
2022/03/20 11:11:24;;;;;;;14.17;7.53;;;13.20;60.90;;;;;;5035585;28;20279;-80
2022/03/20 11:13:52;;;;;;;12.60;7.00;;;13.10;59.80;;;;;;5036314;28;20204;-80
2022/03/20 11:16:22;;;;;;;14.37;6.90;;;13.20;61.40;;;;;;5036453;28;20434;-81
2022/03/20 11:18:52;;;;;;;13.23;6.63;;;13.40;60.30;;;;;;5037399;28;20403;-80
2022/03/20 11:21:27;;;;;;;11.63;6.30;;;13.60;59.80;;;;;;5032848;28;21011;-78
2022/03/20 11:23:54;;;;;;;12.23;6.77;;;13.80;60.20;;;;;;5011752;28;20489;-78
2022/03/20 11:26:21;;;;;;;10.40;6.50;;;13.70;59.10;;;;;;5030377;28;20499;-80
2022/03/20 11:28:53;;;;;;;21.53;7.20;;;13.50;57.00;;;;;;5040889;28;20708;-79
2022/03/20 11:31:21;;;;;;;9.10;5.80;;;13.40;57.30;;;;;;5049168;28;20469;-80
2022/03/20 11:33:48;;;;;;;11.00;6.70;;;13.40;57.80;;;;;;5041819;28;20514;-79
2022/03/20 11:36:14;;;;;;;12.83;6.40;;;13.60;59.20;;;;;;5032869;28;20418;-79
2022/03/20 11:38:41;;;;;;;14.03;6.67;;;13.80;58.00;;;;;;5032012;28;20419;-79
2022/03/20 11:41:17;;;;;;;16.27;7.10;;;13.80;57.50;;;;;;5034427;28;20200;-79
2022/03/20 11:44:11;;;;;;;12.03;6.30;;;13.80;56.80;;;;;;5032145;28;21033;-79
2022/03/20 11:46:37;;;;;;;10.60;6.50;;;13.70;57.10;;;;;;5032368;28;20403;-78
2022/03/20 11:49:17;;;;;;;12.17;6.83;;;13.70;56.20;;;;;;5032582;28;20407;-79
2022/03/20 11:52:06;;;;;;;14.60;7.13;;;13.70;56.60;;;;;;5031616;28;20222;-79
2022/03/20 11:54:51;;;;;;;12.20;5.97;;;13.80;57.70;;;;;;5032524;28;20458;-78
2022/03/20 11:57:26;;;;;;;8.87;5.10;;;14.00;57.20;;;;;;5031903;28;20514;-78
2022/03/20 11:59:54;;;;;;;11.13;6.70;;;14.10;57.20;;;;;;5030932;28;20414;-77
2022/03/20 12:02:27;;;;;;;13.53;6.57;;;14.10;56.70;;;;;;5031277;28;20458;-79
2022/03/20 12:05:15;;;;;;;11.70;6.57;;;14.30;57.30;;;;;;5025732;28;20792;-78
2022/03/20 12:07:56;;;;;;;11.80;6.50;;;14.40;56.50;;;;;;5030628;28;20454;-79
2022/03/20 12:10:24;;;;;;;13.63;5.90;;;14.40;56.60;;;;;;5037785;28;20828;-79
2022/03/20 12:13:25;;;;;;;10.07;6.47;;;14.30;56.10;;;;;;5024213;28;20463;-79
2022/03/20 12:15:51;;;;;;;11.80;6.47;;;14.50;56.70;;;;;;5032815;28;20424;-78
2022/03/20 12:18:16;;;;;;;12.30;6.17;;;14.70;56.50;;;;;;5043623;28;20415;-78
2022/03/20 12:20:48;;;;;;;15.97;6.60;;;14.80;56.10;;;;;;5028822;28;20460;-78
2022/03/20 12:23:42;;;;;;;11.47;6.33;;;14.70;55.80;;;;;;5022417;28;20193;-77
2022/03/20 12:26:48;;;;;;;15.33;7.60;;;14.80;56.90;;;;;;5027331;28;20460;-77
2022/03/20 12:29:32;;;;;;;19.23;6.70;;;15.20;56.70;;;;;;4915764;29;20420;-79
2022/03/20 12:32:12;;;;;;;13.37;6.77;;;15.10;55.00;;;;;;4915986;29;20463;-78
2022/03/20 12:34:39;;;;;;;10.73;6.40;;;15.10;56.10;;;;;;4982081;28;20431;-78
2022/03/20 12:40:10;;;;;;;10.90;6.50;;;15.50;57.20;;;;;;5011159;28;20447;-78
2022/03/20 12:42:38;;;;;;;14.30;8.93;;;15.50;55.40;;;;;;5026467;28;20412;-79
2022/03/20 12:45:07;;;;;;;12.93;6.93;;;15.50;55.60;;;;;;5010172;28;20467;-79
2022/03/20 12:47:33;;;;;;;10.10;6.23;;;15.40;55.70;;;;;;5009371;28;20961;-78
2022/03/20 12:50:07;;;;;;;10.93;7.33;;;15.50;56.20;;;;;;5009792;28;20420;-78
2022/03/20 12:52:34;;;;;;;13.43;6.23;;;15.50;55.50;;;;;;5009771;28;20537;-79
2022/03/20 12:55:03;;;;;;;12.33;7.57;;;15.70;55.90;;;;;;5010529;28;20416;-78
2022/03/20 12:57:47;;;;;;;13.43;6.47;;;15.50;55.50;;;;;;5010123;28;20424;-79
2022/03/20 13:00:15;;;;;;;13.77;7.20;;;15.60;55.70;;;;;;5010692;28;20993;-78
2022/03/20 13:03:09;;;;;;;12.90;7.37;;;15.70;55.80;;;;;;5026021;28;20439;-78
2022/03/20 13:05:57;;;;;;;16.97;7.53;;;15.80;56.30;;;;;;5009980;28;20404;-79
2022/03/20 13:08:28;;;;;;;13.93;7.60;;;16.10;55.20;;;;;;5009658;28;20416;-80
2022/03/20 13:11:05;;;;;;;13.30;6.40;;;16.00;55.30;;;;;;5026056;28;20507;-78
2022/03/20 13:13:34;;;;;;;11.90;6.67;;;16.10;56.30;;;;;;5026530;28;20435;-79
2022/03/20 13:16:00;;;;;;;13.37;7.43;;;16.10;54.90;;;;;;5009616;28;20503;-78
2022/03/20 13:18:29;;;;;;;13.03;7.07;;;16.20;56.60;;;;;;5009681;28;20793;-79